Airfield :
LOGIN :

Register | Disclaimer

   EN    FR    IT 

 










Legend :    VFR   Marginal VFR   IFR   Intensive IFR   Very Intensive IFR
Visi :
Ceiling :
>= 8 km
>= 3000ft
5 to 8 km
1000 to 3000 ft
1500m to 5 km
500 to 1000 ft
800 to 1500m
200 to 500 ft
< 800m
< 200 ft
Symbols :   Thunderstorms  Fog  Heavy snow  Heavy precipitations  Wind > 20 kt
SIGMETs :     Misc.  Thunderstorms  Icing  Turbulence  Mountain Waves  Volcanic Ashes







- Airport Elevation : 416 ft
- IATA code : OVD


LEAS - Asturias

CURRENT METAR :
  • 242130Z VRB01KT 6000 0800E R29/0450N R11/2000N PRFG VV001 16/16 Q1016 TEMPO 3000 BR

EXPIRED METARs :
  • 242118Z 00000KT 9000 1500E R29/0750U R11/2000N BCFG NSC 16/16 Q1016 TEMPO 3000 BR
  • 242100Z 00000KT 9000 0600E R29/0450D R11/2000N BCFG NSC 16/16 Q1016 TEMPO 3000 BR
  • 242037Z VRB02KT 9000 0600E R29/0750D R11/2000N BCFG NSC 17/17 Q1015 TEMPO 3000 BR
  • 242000Z 17004KT 7000 FEW068 17/17 Q1015 TEMPO 3000 BR
  • 241943Z VRB02KT 7000 FEW001 SCT068 17/17 Q1015 TEMPO 3000 BR
  • 241930Z VRB02KT 7000 3400NE BCFG FEW001 SCT019 17/17 Q1015 TEMPO 3000 BR
  • 241900Z 15003KT 100V190 1900 BCFG BKN002 BKN007 17/17 Q1015 NOSIG

TAF TAF LEAS
Valid from the 24 at 21:00 until the 25 at 21:00 UTC


242000Z 2421/2521 VRB05KT 8000 SCT010 BKN020 TX20/2514Z TN14/2506Z
TEMPO 2421/2512 3000 BR BKN010
TEMPO 2421/2512 1500 BCFG BKN005 BKN010
TEMPO 2421/2510 0800 BCFG BKN002
TEMPO 2512/2521 3000 RA SHRA BKN010 SCT025TCU
TEMPO 2518/2521 1500 -RA BCFG BKN005 BKN010
No reported NOTAMs for that airfield.



MET'MAP, your aeronautical weather chart ! - Copyright ORBIFLY December 2007 - Disclaimer

ORBIFLY MET'MAP TEAM :

Programming & Development : Alexandra Zaïnal
Concept & Development : Baudouin d'Aumeries
Co-Development & Prog : Marc-Olivier Méhu
Technical & hardware support : Manuel Goepfert

Contact : metmap@orbifly.com




SOURCES & CREDITS :

   NOAA